Time;durP1;ratioP1;P1;durP2;ratioP2;P2;SDS_P1;SDS_P2;PMS_P1;PMS_P2;Temp;Humidity;BMP_temperature;BMP_pressure;BME280_temperature;BME280_humidity;BME280_pressure;Samples;Min_cycle;Max_cycle;Signal;HPM_P1;HPM_P2
2022/11/27 00:01:20;;;;;;;16.02;10.98;;;3.70;1.00;;;;;;5106073;27;20223;-84
2022/11/27 00:03:49;;;;;;;11.57;10.52;;;3.70;1.00;;;;;;5104576;28;20200;-81
2022/11/27 00:06:19;;;;;;;12.88;11.68;;;3.60;1.00;;;;;;5104611;27;20215;-81
2022/11/27 00:08:47;;;;;;;14.77;11.27;;;3.50;1.00;;;;;;5104195;27;20226;-81
2022/11/27 00:11:18;;;;;;;15.88;10.85;;;3.40;1.00;;;;;;5107514;27;20203;-81
2022/11/27 00:13:48;;;;;;;12.80;11.52;;;3.50;1.00;;;;;;5107169;28;20294;-81
2022/11/27 00:16:18;;;;;;;10.77;9.73;;;3.60;99.90;;;;;;5103844;27;20215;-81
2022/11/27 00:18:46;;;;;;;11.38;10.00;;;3.50;99.90;;;;;;5101423;28;20199;-81
2022/11/27 00:21:16;;;;;;;11.35;10.40;;;3.50;1.00;;;;;;5107595;28;20381;-82
2022/11/27 00:23:45;;;;;;;11.48;10.38;;;3.50;1.00;;;;;;5107997;28;20204;-80
2022/11/27 00:26:15;;;;;;;12.85;9.88;;;3.30;99.90;;;;;;5108869;27;20218;-81
2022/11/27 00:28:43;;;;;;;14.07;10.50;;;3.40;99.90;;;;;;5105167;27;20269;-81
2022/11/27 00:31:18;;;;;;;10.70;9.30;;;3.30;99.90;;;;;;5097957;28;20204;-81
2022/11/27 00:33:46;;;;;;;11.10;9.10;;;3.20;1.00;;;;;;5100363;27;20199;-82
2022/11/27 00:36:15;;;;;;;10.05;9.25;;;3.30;1.00;;;;;;5102771;28;20219;-79
2022/11/27 00:38:43;;;;;;;9.27;8.65;;;3.30;99.90;;;;;;5102917;28;20192;-80
2022/11/27 00:41:14;;;;;;;9.90;8.90;;;3.40;99.90;;;;;;5099328;28;20191;-82
2022/11/27 00:43:43;;;;;;;8.57;7.97;;;3.60;99.90;;;;;;5103783;27;20203;-81
2022/11/27 00:46:14;;;;;;;9.88;9.05;;;3.50;1.00;;;;;;5107132;28;20789;-82
2022/11/27 00:48:44;;;;;;;9.50;8.60;;;3.30;21.40;;;;;;5100451;27;20222;-80
2022/11/27 00:51:14;;;;;;;8.57;7.88;;;3.30;99.90;;;;;;5092800;28;20241;-80
2022/11/27 00:53:43;;;;;;;8.88;8.27;;;3.20;74.70;;;;;;5097322;28;20210;-81
2022/11/27 00:56:15;;;;;;;8.75;8.05;;;3.20;99.90;;;;;;5104094;27;20219;-80
2022/11/27 00:58:43;;;;;;;9.05;8.25;;;3.20;63.30;;;;;;5097659;28;20804;-80
2022/11/27 01:01:17;;;;;;;10.40;9.50;;;3.30;14.40;;;;;;5103041;28;20202;-81
2022/11/27 01:03:46;;;;;;;17.52;12.35;;;3.20;1.00;;;;;;5094479;28;20275;-81
2022/11/27 01:06:16;;;;;;;15.98;12.60;;;3.20;1.00;;;;;;5099735;27;20232;-80
2022/11/27 01:08:44;;;;;;;12.20;10.63;;;3.20;1.00;;;;;;5096937;27;20219;-82
2022/11/27 01:11:15;;;;;;;12.27;11.07;;;3.30;99.90;;;;;;5097699;27;20220;-81
2022/11/27 01:13:44;;;;;;;11.07;10.05;;;3.20;77.70;;;;;;5100158;28;20666;-81
2022/11/27 01:16:15;;;;;;;11.60;10.60;;;3.10;1.00;;;;;;5098452;27;20247;-81
2022/11/27 01:18:46;;;;;;;11.65;10.60;;;3.10;99.90;;;;;;5096281;27;20188;-80
2022/11/27 01:21:16;;;;;;;10.43;9.52;;;3.00;99.90;;;;;;5097087;28;20211;-80
2022/11/27 01:23:44;;;;;;;10.80;9.80;;;3.00;1.00;;;;;;5091822;28;20196;-80
2022/11/27 01:26:13;;;;;;;10.63;9.60;;;2.90;1.00;;;;;;5098270;27;20642;-80
2022/11/27 01:28:41;;;;;;;10.63;9.63;;;2.80;1.00;;;;;;5098903;27;20219;-80
2022/11/27 01:31:13;;;;;;;16.83;10.80;;;2.80;99.90;;;;;;5095437;28;20200;-81
2022/11/27 01:33:43;;;;;;;13.27;12.20;;;2.80;99.90;;;;;;5104454;27;20260;-81
2022/11/27 01:36:13;;;;;;;12.63;11.40;;;2.90;1.00;;;;;;5097780;28;20277;-81
2022/11/27 01:38:42;;;;;;;13.05;11.48;;;2.90;99.90;;;;;;5101737;27;20202;-80
2022/11/27 01:41:16;;;;;;;12.90;10.75;;;2.90;99.90;;;;;;5098221;28;20272;-82
2022/11/27 01:43:45;;;;;;;17.73;10.50;;;2.90;1.00;;;;;;5096250;28;20206;-80
2022/11/27 01:46:28;;;;;;;14.43;9.98;;;2.80;99.90;;;;;;5099885;28;20582;-80
2022/11/27 01:49:03;;;;;;;21.73;10.65;;;2.70;1.00;;;;;;5103491;27;20571;-81
2022/11/27 01:51:32;;;;;;;23.90;10.77;;;2.60;1.00;;;;;;5103329;27;20440;-80
2022/11/27 01:54:00;;;;;;;37.17;12.95;;;2.70;1.00;;;;;;5100169;28;20201;-80
2022/11/27 01:56:29;;;;;;;24.83;11.20;;;2.70;1.00;;;;;;5096811;28;20270;-81
2022/11/27 01:58:59;;;;;;;25.33;11.65;;;2.60;1.00;;;;;;5098188;28;20219;-80
2022/11/27 02:01:27;;;;;;;15.98;10.48;;;2.60;1.00;;;;;;5103779;27;20243;-80
2022/11/27 02:04:00;;;;;;;18.40;11.15;;;2.60;1.00;;;;;;5100114;27;20201;-79
2022/11/27 02:06:28;;;;;;;34.95;12.23;;;2.60;1.00;;;;;;5099062;27;20254;-79
2022/11/27 02:08:57;;;;;;;28.80;11.20;;;2.40;4.60;;;;;;5097375;28;20214;-80
2022/11/27 02:11:33;;;;;;;26.98;11.38;;;2.50;2.40;;;;;;5094813;28;20204;-80
2022/11/27 02:14:10;;;;;;;45.13;13.25;;;2.50;18.80;;;;;;5098348;28;20875;-81
2022/11/27 02:16:47;;;;;;;28.48;12.10;;;2.40;24.00;;;;;;5097172;27;20210;-80
2022/11/27 02:19:26;;;;;;;31.42;11.15;;;2.40;1.00;;;;;;5093923;28;20268;-80
2022/11/27 02:22:00;;;;;;;11.30;10.10;;;2.40;1.00;;;;;;5100406;28;20199;-80
2022/11/27 02:24:48;;;;;;;9.98;8.90;;;2.50;1.00;;;;;;5096182;27;20758;-79
2022/11/27 02:27:39;;;;;;;12.93;8.93;;;2.60;1.00;;;;;;5097859;28;20204;-81
2022/11/27 02:30:10;;;;;;;15.80;9.02;;;2.60;1.00;;;;;;5095681;27;20203;-80
2022/11/27 02:32:41;;;;;;;17.27;9.95;;;2.60;1.00;;;;;;5099474;27;20199;-78
2022/11/27 02:35:16;;;;;;;10.27;9.27;;;2.60;1.00;;;;;;5099633;28;20211;-80
2022/11/27 02:37:48;;;;;;;10.10;9.07;;;2.60;1.00;;;;;;5099522;28;20262;-81
2022/11/27 02:40:23;;;;;;;9.77;8.48;;;2.60;1.00;;;;;;5099207;28;20186;-80
2022/11/27 02:42:57;;;;;;;12.80;9.02;;;2.70;99.90;;;;;;5098772;28;20204;-79
2022/11/27 02:45:31;;;;;;;9.40;8.50;;;2.50;99.90;;;;;;5097542;28;20746;-80
2022/11/27 02:48:00;;;;;;;9.40;8.50;;;2.50;1.00;;;;;;5097284;28;20246;-81
2022/11/27 02:50:32;;;;;;;8.98;8.27;;;2.40;99.90;;;;;;5103484;27;20191;-81
2022/11/27 02:53:04;;;;;;;9.98;8.98;;;2.50;99.90;;;;;;5099412;28;20248;-80
2022/11/27 02:55:36;;;;;;;10.73;9.57;;;2.50;99.90;;;;;;5094882;28;20215;-79
2022/11/27 02:58:09;;;;;;;10.90;8.50;;;2.50;99.90;;;;;;5106883;28;20205;-81
2022/11/27 03:00:41;;;;;;;8.57;7.82;;;2.60;99.90;;;;;;5097001;28;20213;-80
2022/11/27 03:03:12;;;;;;;9.98;9.10;;;2.50;99.90;;;;;;5096110;28;20289;-80
2022/11/27 03:05:43;;;;;;;10.52;9.35;;;2.60;1.00;;;;;;5104304;28;20235;-80
2022/11/27 03:08:18;;;;;;;8.48;7.65;;;2.50;1.00;;;;;;5101015;28;20257;-79
2022/11/27 03:10:52;;;;;;;11.02;9.07;;;2.40;1.00;;;;;;5095814;28;20950;-79
2022/11/27 03:13:20;;;;;;;9.27;8.02;;;2.50;99.90;;;;;;5094305;28;20210;-79
2022/11/27 03:16:00;;;;;;;9.48;7.85;;;2.40;99.90;;;;;;5090623;28;20219;-80
2022/11/27 03:18:37;;;;;;;10.23;8.63;;;2.20;99.90;;;;;;5098268;28;20188;-79
2022/11/27 03:21:12;;;;;;;10.15;8.20;;;2.30;1.00;;;;;;5094123;28;20191;-78
2022/11/27 03:23:40;;;;;;;9.68;8.80;;;2.30;1.00;;;;;;5093731;28;20210;-79
2022/11/27 03:26:08;;;;;;;9.98;9.07;;;2.30;99.90;;;;;;5092514;28;20344;-79
2022/11/27 03:28:37;;;;;;;9.13;8.23;;;2.30;99.90;;;;;;5096565;28;20290;-79
2022/11/27 03:31:07;;;;;;;13.32;10.40;;;2.20;99.90;;;;;;5095517;28;20200;-80
2022/11/27 03:33:35;;;;;;;8.85;7.90;;;2.20;1.00;;;;;;5090128;28;20537;-78
2022/11/27 03:36:12;;;;;;;8.13;7.32;;;2.20;1.00;;;;;;5095837;28;20223;-79
2022/11/27 03:38:40;;;;;;;10.15;9.10;;;2.20;1.00;;;;;;5098850;28;20203;-79
2022/11/27 03:41:16;;;;;;;9.57;8.68;;;2.20;1.00;;;;;;5092736;28;20244;-79
2022/11/27 03:43:54;;;;;;;8.65;7.90;;;2.30;99.90;;;;;;5092280;28;20214;-78
2022/11/27 03:46:31;;;;;;;9.30;8.40;;;2.30;99.90;;;;;;5095728;28;20274;-80
2022/11/27 03:49:03;;;;;;;9.80;8.80;;;2.20;99.90;;;;;;5095362;28;20222;-79
2022/11/27 03:51:42;;;;;;;8.60;7.78;;;2.30;1.00;;;;;;5087465;28;20192;-79
2022/11/27 03:54:17;;;;;;;9.20;8.20;;;2.20;99.90;;;;;;5093141;28;20198;-80
2022/11/27 03:56:52;;;;;;;8.93;8.00;;;2.30;1.00;;;;;;5093692;28;20283;-79
2022/11/27 03:59:25;;;;;;;8.57;7.78;;;2.20;34.00;;;;;;5095936;28;20201;-80
2022/11/27 04:01:54;;;;;;;9.27;8.35;;;2.20;1.00;;;;;;5096950;27;20692;-79
2022/11/27 04:04:23;;;;;;;8.50;7.70;;;2.20;1.00;;;;;;5103273;27;20722;-80
2022/11/27 04:06:51;;;;;;;8.30;7.57;;;2.20;99.90;;;;;;5096851;28;20297;-80
2022/11/27 04:09:20;;;;;;;8.65;7.85;;;2.10;1.00;;;;;;5101051;27;20296;-80
2022/11/27 04:11:48;;;;;;;8.27;7.60;;;2.20;25.00;;;;;;5099855;28;20200;-81
2022/11/27 04:14:16;;;;;;;8.00;7.10;;;2.10;99.90;;;;;;5102059;27;20202;-81
2022/11/27 04:16:45;;;;;;;7.07;6.38;;;2.20;22.40;;;;;;5101281;27;20229;-80
2022/11/27 04:19:14;;;;;;;7.10;6.50;;;2.20;1.00;;;;;;5098424;28;20550;-79
2022/11/27 04:21:42;;;;;;;8.45;6.97;;;2.10;99.90;;;;;;5099058;27;20655;-80
2022/11/27 04:24:10;;;;;;;7.50;6.80;;;2.10;1.00;;;;;;5097820;28;20252;-80
2022/11/27 04:26:38;;;;;;;9.60;7.20;;;2.00;1.00;;;;;;5098236;28;20218;-80
2022/11/27 04:29:06;;;;;;;7.72;7.03;;;2.00;1.00;;;;;;5099924;27;20221;-80
2022/11/27 04:31:35;;;;;;;7.30;6.63;;;2.00;99.90;;;;;;5097974;28;20204;-77
2022/11/27 04:34:03;;;;;;;5.85;5.38;;;2.10;99.90;;;;;;5105648;27;20211;-80
2022/11/27 04:36:32;;;;;;;6.90;6.20;;;2.20;99.90;;;;;;5101017;27;20226;-78
2022/11/27 04:39:06;;;;;;;7.35;6.70;;;2.10;39.50;;;;;;5106184;27;20183;-80
2022/11/27 04:41:34;;;;;;;7.60;6.82;;;2.00;37.60;;;;;;5109970;27;20209;-80
2022/11/27 04:44:03;;;;;;;7.22;6.63;;;2.00;99.90;;;;;;5109332;28;20221;-80
2022/11/27 04:46:31;;;;;;;5.88;5.38;;;2.00;1.00;;;;;;5102666;27;20218;-79
2022/11/27 04:48:59;;;;;;;5.78;5.32;;;2.00;99.90;;;;;;5093628;28;20215;-79
2022/11/27 04:51:27;;;;;;;8.32;6.00;;;2.00;99.90;;;;;;5101976;27;20198;-79
2022/11/27 04:53:57;;;;;;;5.60;5.20;;;2.10;21.80;;;;;;5106043;27;20210;-80
2022/11/27 04:56:25;;;;;;;4.72;4.30;;;2.10;99.90;;;;;;5105849;28;20223;-80
2022/11/27 04:58:53;;;;;;;5.72;5.32;;;2.10;99.90;;;;;;5100110;27;20198;-79
2022/11/27 05:01:21;;;;;;;4.88;4.57;;;2.00;99.90;;;;;;5097527;28;20194;-80
2022/11/27 05:03:49;;;;;;;8.25;5.90;;;2.00;1.00;;;;;;5102602;28;20263;-80
2022/11/27 05:06:18;;;;;;;5.78;5.28;;;2.00;1.00;;;;;;5095593;28;20248;-80
2022/11/27 05:08:46;;;;;;;5.78;5.38;;;2.00;99.90;;;;;;5099276;27;20192;-81
2022/11/27 05:11:17;;;;;;;5.60;5.10;;;1.90;99.90;;;;;;5102433;28;20216;-80
2022/11/27 05:13:45;;;;;;;5.93;5.43;;;1.90;99.90;;;;;;5100164;27;20221;-79
2022/11/27 05:16:13;;;;;;;6.55;6.00;;;2.00;99.90;;;;;;5097493;28;20215;-80
2022/11/27 05:18:42;;;;;;;8.77;6.80;;;2.00;99.90;;;;;;5098480;28;20319;-80
2022/11/27 05:21:10;;;;;;;7.45;6.75;;;2.10;1.00;;;;;;5097317;27;20227;-80
2022/11/27 05:23:38;;;;;;;6.93;6.00;;;2.10;99.90;;;;;;5098209;28;20198;-80
2022/11/27 05:26:06;;;;;;;5.68;5.28;;;2.00;99.90;;;;;;5099176;28;20221;-80
2022/11/27 05:28:36;;;;;;;6.45;5.90;;;2.00;1.00;;;;;;5099815;27;20205;-79
2022/11/27 05:31:04;;;;;;;6.78;6.18;;;1.90;1.00;;;;;;5093273;28;20230;-79
2022/11/27 05:33:32;;;;;;;6.47;5.45;;;2.00;99.90;;;;;;5096625;27;20215;-79
2022/11/27 05:36:00;;;;;;;7.10;6.60;;;1.90;1.00;;;;;;5095061;27;20768;-79
2022/11/27 05:38:28;;;;;;;7.80;7.10;;;1.90;16.80;;;;;;5098506;28;20230;-80
2022/11/27 05:40:57;;;;;;;6.88;6.38;;;1.90;86.60;;;;;;5094435;28;20194;-79
2022/11/27 05:43:25;;;;;;;6.85;6.25;;;2.00;99.90;;;;;;5096677;27;20795;-80
2022/11/27 05:45:54;;;;;;;7.85;7.25;;;2.10;1.00;;;;;;5098281;27;20386;-80
2022/11/27 05:48:23;;;;;;;7.05;6.45;;;2.10;99.90;;;;;;5097289;28;20743;-79
2022/11/27 05:50:51;;;;;;;6.63;6.10;;;2.00;1.00;;;;;;5091680;28;20697;-80
2022/11/27 05:53:19;;;;;;;6.55;5.95;;;1.90;27.60;;;;;;5093976;28;20213;-80
2022/11/27 05:55:47;;;;;;;6.50;5.97;;;1.80;1.00;;;;;;5095005;28;20230;-79
2022/11/27 05:58:16;;;;;;;6.30;5.80;;;1.80;1.00;;;;;;5092703;27;20226;-79
2022/11/27 06:00:44;;;;;;;7.55;6.85;;;1.80;99.90;;;;;;5095312;27;20728;-80
2022/11/27 06:03:13;;;;;;;5.90;5.57;;;1.90;1.00;;;;;;5097597;28;20209;-80
2022/11/27 06:05:42;;;;;;;7.68;6.60;;;1.90;1.00;;;;;;5090452;28;20230;-80
2022/11/27 06:08:11;;;;;;;6.93;6.35;;;1.90;1.00;;;;;;5093984;28;20196;-78
2022/11/27 06:10:40;;;;;;;6.32;5.93;;;1.80;99.90;;;;;;5090373;28;20212;-79
2022/11/27 06:13:08;;;;;;;8.60;6.60;;;1.80;99.90;;;;;;5092505;27;20212;-78
2022/11/27 06:15:36;;;;;;;8.00;6.63;;;1.80;99.90;;;;;;5096976;28;20669;-78
2022/11/27 06:18:05;;;;;;;6.60;6.05;;;1.70;99.90;;;;;;5094854;27;20192;-79
2022/11/27 06:20:35;;;;;;;7.05;6.50;;;1.70;1.00;;;;;;5093928;28;20200;-79
2022/11/27 06:23:10;;;;;;;6.95;6.45;;;1.80;99.90;;;;;;5095920;28;20184;-80
2022/11/27 06:25:38;;;;;;;6.90;6.40;;;1.70;1.00;;;;;;5096744;27;20219;-78
2022/11/27 06:28:06;;;;;;;7.40;6.70;;;1.70;99.90;;;;;;5098523;28;20257;-80
2022/11/27 06:30:34;;;;;;;6.72;6.13;;;1.60;59.90;;;;;;5099614;28;20719;-80
2022/11/27 06:33:03;;;;;;;6.90;6.25;;;1.70;1.00;;;;;;5096095;28;20778;-79
2022/11/27 06:35:31;;;;;;;20.73;14.65;;;1.70;99.90;;;;;;5096649;28;20306;-79
2022/11/27 06:38:00;;;;;;;9.88;8.88;;;1.70;1.00;;;;;;5092939;28;20283;-79
2022/11/27 06:40:28;;;;;;;10.63;6.95;;;1.70;99.90;;;;;;5093511;28;20210;-79
2022/11/27 06:42:57;;;;;;;7.32;6.63;;;1.70;99.90;;;;;;5092729;28;20323;-82
2022/11/27 06:45:25;;;;;;;8.10;6.85;;;1.70;1.00;;;;;;5097165;28;20217;-79
2022/11/27 06:47:53;;;;;;;7.63;6.93;;;1.70;99.90;;;;;;5096284;28;20193;-79
2022/11/27 06:50:21;;;;;;;7.57;6.97;;;1.80;99.90;;;;;;5095311;28;20228;-77
2022/11/27 06:52:50;;;;;;;8.93;7.82;;;1.80;1.00;;;;;;5096588;28;20200;-80
2022/11/27 06:55:19;;;;;;;8.10;7.10;;;1.80;99.90;;;;;;5092102;28;20224;-79
2022/11/27 06:57:50;;;;;;;6.85;6.25;;;1.80;99.90;;;;;;5099180;28;20228;-81
2022/11/27 07:00:19;;;;;;;8.50;7.43;;;1.80;99.90;;;;;;5096918;28;20194;-80
2022/11/27 07:02:47;;;;;;;6.78;6.18;;;1.80;99.90;;;;;;5095052;28;20281;-80
2022/11/27 07:05:16;;;;;;;6.97;6.43;;;2.10;99.90;;;;;;5091012;28;20221;-79
2022/11/27 07:07:44;;;;;;;8.38;7.68;;;2.00;1.00;;;;;;5093501;28;20196;-81
2022/11/27 07:10:12;;;;;;;8.50;7.20;;;2.00;99.90;;;;;;5099505;28;20201;-78
2022/11/27 07:12:42;;;;;;;6.68;6.15;;;2.00;99.90;;;;;;5094590;28;20267;-80
2022/11/27 07:15:10;;;;;;;5.22;4.10;;;2.40;99.90;;;;;;5099441;28;20216;-84
2022/11/27 07:17:40;;;;;;;5.22;4.40;;;2.70;1.00;;;;;;5103758;28;20206;-81
2022/11/27 07:20:09;;;;;;;4.15;3.65;;;2.90;1.00;;;;;;5096443;28;20213;-79
2022/11/27 07:22:37;;;;;;;5.55;5.05;;;3.00;1.00;;;;;;5093036;28;20233;-78
2022/11/27 07:25:06;;;;;;;4.90;4.50;;;2.90;99.90;;;;;;5095208;28;20231;-80
2022/11/27 07:27:34;;;;;;;4.97;4.53;;;3.20;1.00;;;;;;5095280;28;20675;-80
2022/11/27 07:30:04;;;;;;;5.25;4.95;;;3.40;1.00;;;;;;5092019;28;20301;-80
2022/11/27 07:32:32;;;;;;;4.68;4.38;;;3.50;1.00;;;;;;5097957;27;20219;-79
2022/11/27 07:35:00;;;;;;;5.88;5.20;;;3.60;1.00;;;;;;5101043;27;20191;-80
2022/11/27 07:37:31;;;;;;;7.15;5.32;;;3.60;99.90;;;;;;5101168;28;20669;-79
2022/11/27 07:40:00;;;;;;;5.53;5.13;;;3.80;1.00;;;;;;5097005;28;20987;-79
2022/11/27 07:42:30;;;;;;;5.47;5.18;;;3.80;99.90;;;;;;5102025;27;20211;-80
2022/11/27 07:45:09;;;;;;;5.90;5.22;;;3.90;99.90;;;;;;5097882;27;20777;-80
2022/11/27 07:47:37;;;;;;;5.55;5.15;;;3.90;1.00;;;;;;5100537;27;20282;-80
2022/11/27 07:50:08;;;;;;;5.82;5.43;;;4.00;99.90;;;;;;5096099;28;20195;-79
2022/11/27 07:52:37;;;;;;;5.13;4.73;;;4.10;99.90;;;;;;5094020;27;20245;-81
2022/11/27 07:55:10;;;;;;;6.03;5.67;;;4.20;99.90;;;;;;5099582;27;20481;-80
2022/11/27 07:57:38;;;;;;;6.22;5.75;;;4.20;99.90;;;;;;5100859;28;20465;-80
2022/11/27 08:00:09;;;;;;;6.00;5.60;;;4.40;99.90;;;;;;5097857;28;20658;-79
2022/11/27 08:02:38;;;;;;;7.17;6.67;;;4.50;76.00;;;;;;5097082;28;20524;-80
2022/11/27 08:05:07;;;;;;;5.67;5.30;;;4.60;35.30;;;;;;5095599;27;20957;-80
2022/11/27 08:07:39;;;;;;;6.00;5.60;;;4.70;1.00;;;;;;5099889;28;20470;-78
2022/11/27 08:10:09;;;;;;;5.53;5.13;;;5.00;99.90;;;;;;5095492;28;20196;-79
2022/11/27 08:12:37;;;;;;;6.17;5.83;;;5.00;99.90;;;;;;5098179;28;21003;-79
2022/11/27 08:15:06;;;;;;;6.00;5.57;;;5.00;1.00;;;;;;5097214;27;20452;-81
2022/11/27 08:17:36;;;;;;;8.63;6.90;;;5.10;99.90;;;;;;5103698;27;20526;-81
2022/11/27 08:20:05;;;;;;;6.80;6.40;;;5.30;1.00;;;;;;5100177;28;20453;-80
2022/11/27 08:22:33;;;;;;;6.43;6.00;;;5.40;1.00;;;;;;5095142;28;20955;-77
2022/11/27 08:25:02;;;;;;;6.83;6.33;;;5.50;1.00;;;;;;5100536;27;20508;-78
2022/11/27 08:27:32;;;;;;;6.33;6.00;;;5.80;99.90;;;;;;5097559;27;20614;-79
2022/11/27 08:30:00;;;;;;;7.30;6.70;;;6.00;1.00;;;;;;5090915;28;20855;-80
2022/11/27 08:32:28;;;;;;;7.50;6.90;;;6.10;1.00;;;;;;5097274;28;20904;-78
2022/11/27 08:34:58;;;;;;;6.90;6.20;;;6.10;99.70;;;;;;5093982;27;20455;-77
2022/11/27 08:37:26;;;;;;;7.10;6.50;;;6.00;1.00;;;;;;5101446;27;20485;-78
2022/11/27 08:39:54;;;;;;;7.13;6.73;;;6.10;99.90;;;;;;5097334;27;20523;-78
2022/11/27 08:42:22;;;;;;;7.13;6.73;;;6.10;99.90;;;;;;5099555;27;20962;-77
2022/11/27 08:44:51;;;;;;;7.53;6.97;;;6.40;69.20;;;;;;5093935;27;20892;-78
2022/11/27 08:47:19;;;;;;;7.40;6.90;;;6.40;99.90;;;;;;5097345;28;21116;-79
2022/11/27 08:49:47;;;;;;;9.03;8.33;;;6.50;1.00;;;;;;5096512;27;20450;-77
2022/11/27 08:52:16;;;;;;;9.10;8.20;;;6.40;1.00;;;;;;5096904;27;20479;-79
2022/11/27 08:54:45;;;;;;;8.63;7.93;;;6.40;33.70;;;;;;5100655;27;20450;-77
2022/11/27 08:57:13;;;;;;;8.37;7.57;;;6.50;1.00;;;;;;5093882;28;20465;-77
2022/11/27 08:59:41;;;;;;;7.43;6.93;;;6.40;1.00;;;;;;5096764;27;20783;-78
2022/11/27 09:02:12;;;;;;;6.50;5.97;;;6.20;1.00;;;;;;5098308;27;20442;-78
2022/11/27 09:04:40;;;;;;;6.60;6.17;;;6.30;1.00;;;;;;5098161;27;20454;-79
2022/11/27 09:07:11;;;;;;;6.73;6.40;;;6.40;99.90;;;;;;5098218;28;20478;-78
2022/11/27 09:09:40;;;;;;;7.77;7.17;;;6.30;99.90;;;;;;5100839;27;20452;-78
2022/11/27 09:12:08;;;;;;;8.60;7.93;;;6.40;1.00;;;;;;5092728;27;20497;-78
2022/11/27 09:14:37;;;;;;;10.07;7.00;;;6.50;99.90;;;;;;5094051;27;20480;-78
2022/11/27 09:17:05;;;;;;;7.13;6.63;;;6.40;1.00;;;;;;5100975;27;20532;-79
2022/11/27 09:19:34;;;;;;;7.57;6.97;;;6.40;34.00;;;;;;5097780;28;20437;-81
2022/11/27 09:22:02;;;;;;;6.77;6.37;;;6.30;1.00;;;;;;5093080;28;20447;-78
2022/11/27 09:24:30;;;;;;;6.43;6.00;;;6.30;31.00;;;;;;5096943;28;20461;-80
2022/11/27 09:27:00;;;;;;;6.17;5.60;;;6.50;1.00;;;;;;5098527;28;20863;-78
2022/11/27 09:29:28;;;;;;;6.60;6.20;;;6.70;99.90;;;;;;5094110;27;20461;-81
2022/11/27 09:31:56;;;;;;;6.80;6.40;;;7.10;1.00;;;;;;5095179;28;21185;-81
2022/11/27 09:34:24;;;;;;;6.70;6.30;;;7.00;1.00;;;;;;5098725;27;20810;-79
2022/11/27 09:36:53;;;;;;;5.90;5.60;;;7.20;1.00;;;;;;5101194;27;20466;-82
2022/11/27 09:39:21;;;;;;;6.37;6.03;;;7.10;99.90;;;;;;5093628;28;20459;-80
2022/11/27 09:41:52;;;;;;;5.80;5.50;;;7.40;99.90;;;;;;5094740;27;20444;-79
2022/11/27 09:44:29;;;;;;;6.07;5.77;;;7.50;1.00;;;;;;5098048;28;20460;-79
2022/11/27 09:47:01;;;;;;;6.00;5.70;;;8.10;99.90;;;;;;5094253;28;20507;-81
2022/11/27 09:49:36;;;;;;;5.67;5.37;;;8.20;99.90;;;;;;5095511;27;20512;-81
2022/11/27 09:52:07;;;;;;;6.93;6.43;;;8.60;99.90;;;;;;5095953;28;20484;-78
2022/11/27 09:54:38;;;;;;;5.93;5.60;;;8.80;1.00;;;;;;5100168;27;20501;-79
2022/11/27 09:57:12;;;;;;;5.77;5.47;;;9.30;1.00;;;;;;5096266;28;21014;-79
2022/11/27 09:59:47;;;;;;;6.67;6.10;;;9.90;99.90;;;;;;5093510;27;20499;-80
2022/11/27 10:02:18;;;;;;;5.87;5.47;;;10.10;99.90;;;;;;5094043;28;20455;-80
2022/11/27 10:04:46;;;;;;;6.47;5.97;;;9.90;99.90;;;;;;5097936;28;20455;-78
2022/11/27 10:07:49;;;;;;;6.90;6.50;;;11.10;99.90;;;;;;5097480;28;20454;-78
2022/11/27 10:10:29;;;;;;;6.03;5.73;;;10.60;99.90;;;;;;5098099;27;20459;-79
2022/11/27 10:13:05;;;;;;;5.87;5.57;;;10.10;99.90;;;;;;5098166;28;20461;-79
2022/11/27 10:15:44;;;;;;;6.07;5.77;;;9.90;99.90;;;;;;5096655;27;20477;-79
2022/11/27 10:18:22;;;;;;;6.33;6.03;;;10.20;99.90;;;;;;5094365;28;20465;-79
2022/11/27 10:20:54;;;;;;;7.60;6.83;;;11.10;99.90;;;;;;5098028;28;21115;-78
2022/11/27 10:23:31;;;;;;;5.97;5.47;;;12.70;99.90;;;;;;5094552;27;20464;-79
2022/11/27 10:26:04;;;;;;;7.20;6.63;;;13.10;99.90;;;;;;5095590;27;20469;-78
2022/11/27 10:28:39;;;;;;;6.57;6.00;;;13.20;99.90;;;;;;5095616;28;20445;-79
2022/11/27 10:31:16;;;;;;;5.73;5.47;;;12.70;99.90;;;;;;5094869;28;20455;-77
2022/11/27 10:33:48;;;;;;;6.40;6.00;;;13.10;99.90;;;;;;5092796;28;20480;-78
2022/11/27 10:36:21;;;;;;;5.80;5.47;;;14.80;99.90;;;;;;5090361;27;20480;-78
2022/11/27 10:38:51;;;;;;;5.50;5.20;;;14.10;99.90;;;;;;5093579;27;20430;-79
2022/11/27 10:41:25;;;;;;;5.00;4.70;;;13.60;99.90;;;;;;5094015;27;20815;-79
2022/11/27 10:44:28;;;;;;;7.37;6.60;;;12.90;99.90;;;;;;5094647;28;20447;-78
2022/11/27 10:47:02;;;;;;;11.43;9.33;;;11.80;99.90;;;;;;5095139;28;20499;-79
2022/11/27 10:49:31;;;;;;;6.87;6.47;;;10.80;99.90;;;;;;5095847;28;20948;-79
2022/11/27 10:51:59;;;;;;;4.97;4.57;;;10.50;99.90;;;;;;5092106;28;20445;-80
2022/11/27 10:54:31;;;;;;;4.63;4.43;;;10.20;99.90;;;;;;5089064;28;20445;-79
2022/11/27 10:57:15;;;;;;;4.40;4.20;;;9.90;99.90;;;;;;5095149;27;20472;-78
2022/11/27 10:59:49;;;;;;;4.40;4.07;;;9.70;99.90;;;;;;5091175;28;21000;-78
2022/11/27 11:02:30;;;;;;;4.20;4.00;;;10.10;99.90;;;;;;5096661;28;20451;-79
2022/11/27 11:05:09;;;;;;;4.70;4.40;;;10.50;99.90;;;;;;5095758;27;20456;-79
2022/11/27 11:08:00;;;;;;;4.00;3.70;;;11.30;99.90;;;;;;5100277;28;20463;-80
2022/11/27 11:10:34;;;;;;;4.23;3.93;;;12.40;99.90;;;;;;5099929;27;20463;-81
2022/11/27 11:13:14;;;;;;;4.13;3.93;;;13.00;99.90;;;;;;5099823;28;20528;-80
2022/11/27 11:15:55;;;;;;;4.10;3.90;;;12.40;99.90;;;;;;5098320;27;20482;-78
2022/11/27 11:18:27;;;;;;;5.00;4.73;;;11.50;99.90;;;;;;5101646;27;20921;-78
2022/11/27 11:20:58;;;;;;;14.57;13.00;;;11.10;99.90;;;;;;5100824;27;20449;-80
2022/11/27 11:23:35;;;;;;;4.73;4.53;;;11.00;99.90;;;;;;5101099;27;20476;-78
2022/11/27 11:26:08;;;;;;;4.77;4.37;;;11.20;99.90;;;;;;5103650;27;20512;-79
2022/11/27 11:28:47;;;;;;;4.57;4.37;;;11.20;99.90;;;;;;5103686;27;21335;-78
2022/11/27 11:31:18;;;;;;;4.17;3.97;;;10.90;99.90;;;;;;5104300;27;20452;-79
2022/11/27 11:33:52;;;;;;;54.37;33.40;;;10.70;99.90;;;;;;5096107;27;20461;-78
2022/11/27 11:36:21;;;;;;;6.00;5.37;;;10.20;99.90;;;;;;5099981;27;20512;-78
2022/11/27 11:38:51;;;;;;;6.90;6.30;;;10.10;99.90;;;;;;5099857;27;21100;-79
2022/11/27 11:41:19;;;;;;;5.00;4.60;;;10.20;99.90;;;;;;5102866;27;20495;-81
2022/11/27 11:43:56;;;;;;;4.63;4.43;;;10.10;99.90;;;;;;5099730;27;20450;-77
2022/11/27 11:46:27;;;;;;;4.70;4.50;;;9.80;99.90;;;;;;5099899;27;21340;-79
2022/11/27 11:49:04;;;;;;;11.27;8.40;;;9.40;99.90;;;;;;5097904;27;20457;-78
2022/11/27 11:51:57;;;;;;;6.23;5.63;;;10.00;99.90;;;;;;5101804;27;20877;-78
2022/11/27 11:54:41;;;;;;;6.17;5.70;;;10.60;99.90;;;;;;5091891;27;20643;-78
2022/11/27 11:57:38;;;;;;;5.30;5.00;;;10.30;99.90;;;;;;5096921;27;20479;-79
2022/11/27 12:00:11;;;;;;;6.50;6.00;;;10.40;99.90;;;;;;5098623;27;20545;-78
2022/11/27 12:03:08;;;;;;;4.70;4.40;;;10.20;99.90;;;;;;5096591;27;20777;-79
2022/11/27 12:05:48;;;;;;;4.67;4.43;;;10.10;99.90;;;;;;5096387;27;20510;-77
2022/11/27 12:08:37;;;;;;;4.23;4.03;;;10.00;99.90;;;;;;5102499;27;20447;-77
2022/11/27 12:11:11;;;;;;;6.50;6.10;;;10.10;99.90;;;;;;5100134;27;20976;-76
2022/11/27 12:13:51;;;;;;;4.73;4.53;;;9.90;99.90;;;;;;5098447;27;20476;-76
2022/11/27 12:16:28;;;;;;;8.53;7.83;;;10.10;99.90;;;;;;5098663;27;20472;-77
2022/11/27 12:19:13;;;;;;;4.53;4.33;;;10.50;99.90;;;;;;5087433;28;20464;-77
2022/11/27 12:21:52;;;;;;;5.60;5.20;;;10.70;99.90;;;;;;5090374;28;20507;-76
2022/11/27 12:24:30;;;;;;;4.20;4.00;;;10.80;99.90;;;;;;5091016;28;20458;-76
2022/11/27 12:27:14;;;;;;;4.20;4.00;;;10.90;99.90;;;;;;5088429;28;20481;-78
2022/11/27 12:30:02;;;;;;;3.60;3.40;;;10.90;99.90;;;;;;5095697;28;20468;-76
2022/11/27 12:33:09;;;;;;;3.50;3.20;;;10.80;99.90;;;;;;5098608;27;20446;-76
2022/11/27 12:35:44;;;;;;;3.87;3.67;;;10.30;99.90;;;;;;5065864;28;20495;-77
2022/11/27 12:38:33;;;;;;;3.20;3.10;;;10.30;99.90;;;;;;5096292;28;21086;-77
2022/11/27 12:41:22;;;;;;;3.50;3.30;;;10.50;99.90;;;;;;5094542;28;21443;-77
2022/11/27 12:43:55;;;;;;;4.20;4.00;;;10.30;99.90;;;;;;5093052;27;20435;-77
2022/11/27 12:46:28;;;;;;;3.97;3.70;;;10.10;99.90;;;;;;5089498;28;20218;-78
2022/11/27 12:49:02;;;;;;;4.40;4.20;;;10.10;99.90;;;;;;5092157;28;20455;-76
2022/11/27 12:51:37;;;;;;;4.10;3.90;;;10.20;99.90;;;;;;5092019;28;20477;-76
2022/11/27 12:54:13;;;;;;;4.00;3.70;;;10.40;99.90;;;;;;5086212;28;20533;-77
2022/11/27 12:56:45;;;;;;;3.70;3.50;;;10.50;99.90;;;;;;5088971;27;20226;-78
2022/11/27 12:59:20;;;;;;;3.10;3.00;;;10.60;99.90;;;;;;5088822;27;20516;-77
2022/11/27 13:01:55;;;;;;;3.50;3.40;;;10.70;99.90;;;;;;5092481;28;20454;-78
2022/11/27 13:04:30;;;;;;;3.80;3.60;;;10.40;99.90;;;;;;5088567;28;20450;-78
2022/11/27 13:07:04;;;;;;;4.03;3.83;;;10.50;99.90;;;;;;5095004;27;21054;-77
2022/11/27 13:09:42;;;;;;;3.50;3.20;;;10.30;99.90;;;;;;5085965;27;20465;-77
2022/11/27 13:12:17;;;;;;;3.87;3.77;;;10.40;99.90;;;;;;5094788;28;20449;-78
2022/11/27 13:14:51;;;;;;;3.17;3.07;;;10.30;99.90;;;;;;5096203;28;20588;-77
2022/11/27 13:17:20;;;;;;;3.60;3.40;;;10.30;99.90;;;;;;5095274;27;20429;-77
2022/11/27 13:19:50;;;;;;;3.17;3.07;;;10.30;99.90;;;;;;5096733;27;20461;-79